sensor_id;sensor_type;location;lat;lon;timestamp;pressure;altitude;pressure_sealevel;temperature;humidity
10587;BME280;5341;47.606;7.576;2022-09-25T00:02:03;98418.47;;;16.34;60.88
10587;BME280;5341;47.606;7.576;2022-09-25T00:04:34;98428.44;;;16.33;60.83
10587;BME280;5341;47.606;7.576;2022-09-25T00:07:02;98420.34;;;16.33;60.83
10587;BME280;5341;47.606;7.576;2022-09-25T00:09:29;98424.09;;;16.32;60.77
10587;BME280;5341;47.606;7.576;2022-09-25T00:11:57;98420.34;;;16.33;60.95
10587;BME280;5341;47.606;7.576;2022-09-25T00:14:27;98423.88;;;16.34;60.84
10587;BME280;5341;47.606;7.576;2022-09-25T00:16:54;98420.56;;;16.32;60.91
10587;BME280;5341;47.606;7.576;2022-09-25T00:19:22;98412.13;;;16.28;61.29
10587;BME280;5341;47.606;7.576;2022-09-25T00:22:06;98410.72;;;16.26;61.41
10587;BME280;5341;47.606;7.576;2022-09-25T00:24:34;98414.06;;;16.21;61.65
10587;BME280;5341;47.606;7.576;2022-09-25T00:27:02;98422.16;;;16.21;61.71
10587;BME280;5341;47.606;7.576;2022-09-25T00:29:32;98420.28;;;16.22;61.51
10587;BME280;5341;47.606;7.576;2022-09-25T00:32:00;98427.94;;;16.25;61.75
10587;BME280;5341;47.606;7.576;2022-09-25T00:34:27;98429.59;;;16.26;61.76
10587;BME280;5341;47.606;7.576;2022-09-25T00:36:55;98422.91;;;16.28;61.67
10587;BME280;5341;47.606;7.576;2022-09-25T00:39:22;98413.19;;;16.27;61.63
10587;BME280;5341;47.606;7.576;2022-09-25T00:41:50;98401.56;;;16.27;61.84
10587;BME280;5341;47.606;7.576;2022-09-25T00:44:55;98396.16;;;16.27;61.58
10587;BME280;5341;47.606;7.576;2022-09-25T00:47:27;98383.72;;;16.26;61.66
10587;BME280;5341;47.606;7.576;2022-09-25T00:49:58;98389.13;;;16.26;61.54
10587;BME280;5341;47.606;7.576;2022-09-25T00:52:28;98392.66;;;16.26;61.84
10587;BME280;5341;47.606;7.576;2022-09-25T00:54:59;98387.03;;;16.28;61.88
10587;BME280;5341;47.606;7.576;2022-09-25T00:57:30;98381.63;;;16.28;61.75
10587;BME280;5341;47.606;7.576;2022-09-25T01:00:05;98378.91;;;16.28;61.88
10587;BME280;5341;47.606;7.576;2022-09-25T01:02:35;98371.28;;;16.25;61.87
10587;BME280;5341;47.606;7.576;2022-09-25T01:05:07;98377.94;;;16.22;62.08
10587;BME280;5341;47.606;7.576;2022-09-25T01:07:38;98391.00;;;16.25;61.96
10587;BME280;5341;47.606;7.576;2022-09-25T01:10:08;98389.94;;;16.26;61.85
10587;BME280;5341;47.606;7.576;2022-09-25T01:12:38;98397.81;;;16.28;61.95
10587;BME280;5341;47.606;7.576;2022-09-25T01:15:09;98396.75;;;16.29;61.82
10587;BME280;5341;47.606;7.576;2022-09-25T01:17:42;98391.94;;;16.31;61.87
10587;BME280;5341;47.606;7.576;2022-09-25T01:20:16;98394.66;;;16.31;61.39
10587;BME280;5341;47.606;7.576;2022-09-25T01:22:58;98394.06;;;16.29;61.54
10587;BME280;5341;47.606;7.576;2022-09-25T01:25:42;98395.94;;;16.28;61.64
10587;BME280;5341;47.606;7.576;2022-09-25T01:28:37;98396.75;;;16.29;61.79
10587;BME280;5341;47.606;7.576;2022-09-25T01:31:10;98400.28;;;16.29;61.68
10587;BME280;5341;47.606;7.576;2022-09-25T01:33:44;98397.56;;;16.29;61.59
10587;BME280;5341;47.606;7.576;2022-09-25T01:36:16;98402.16;;;16.29;61.87
10587;BME280;5341;47.606;7.576;2022-09-25T01:38:48;98393.47;;;16.27;61.67
10587;BME280;5341;47.606;7.576;2022-09-25T01:41:21;98390.75;;;16.27;61.91
10587;BME280;5341;47.606;7.576;2022-09-25T01:43:58;98382.09;;;16.25;61.63
10587;BME280;5341;47.606;7.576;2022-09-25T01:46:28;98377.13;;;16.22;61.87
10587;BME280;5341;47.606;7.576;2022-09-25T01:48:59;98374.66;;;16.20;61.99
10587;BME280;5341;47.606;7.576;2022-09-25T01:51:33;98368.44;;;16.20;62.14
10587;BME280;5341;47.606;7.576;2022-09-25T01:54:07;98366.78;;;16.19;62.14
10587;BME280;5341;47.606;7.576;2022-09-25T01:56:38;98367.03;;;16.17;62.00
10587;BME280;5341;47.606;7.576;2022-09-25T01:59:17;98370.53;;;16.18;61.99
10587;BME280;5341;47.606;7.576;2022-09-25T02:01:48;98365.97;;;16.18;61.81
10587;BME280;5341;47.606;7.576;2022-09-25T02:04:19;98369.72;;;16.17;61.99
10587;BME280;5341;47.606;7.576;2022-09-25T02:06:51;98366.44;;;16.15;61.90
10587;BME280;5341;47.606;7.576;2022-09-25T02:09:23;98359.41;;;16.14;61.79
10587;BME280;5341;47.606;7.576;2022-09-25T02:11:58;98357.28;;;16.16;62.32
10587;BME280;5341;47.606;7.576;2022-09-25T02:14:33;98347.31;;;16.17;61.90
10587;BME280;5341;47.606;7.576;2022-09-25T02:17:05;98352.94;;;16.15;61.99
10587;BME280;5341;47.606;7.576;2022-09-25T02:19:37;98351.06;;;16.16;62.06
10587;BME280;5341;47.606;7.576;2022-09-25T02:22:24;98362.44;;;16.18;61.94
10587;BME280;5341;47.606;7.576;2022-09-25T02:24:56;98358.69;;;16.19;61.77
10587;BME280;5341;47.606;7.576;2022-09-25T02:27:27;98365.16;;;16.18;61.87
10587;BME280;5341;47.606;7.576;2022-09-25T02:29:56;98362.44;;;16.18;61.98
10587;BME280;5341;47.606;7.576;2022-09-25T02:32:27;98360.81;;;16.17;62.08
10587;BME280;5341;47.606;7.576;2022-09-25T02:34:56;98359.16;;;16.16;61.67
10587;BME280;5341;47.606;7.576;2022-09-25T02:37:25;98374.53;;;16.15;61.79
10587;BME280;5341;47.606;7.576;2022-09-25T02:39:54;98363.72;;;16.15;61.79
10587;BME280;5341;47.606;7.576;2022-09-25T02:42:30;98372.66;;;16.16;62.00
10587;BME280;5341;47.606;7.576;2022-09-25T02:45:13;98368.06;;;16.16;61.90
10587;BME280;5341;47.606;7.576;2022-09-25T02:47:54;98364.56;;;16.16;61.71
10587;BME280;5341;47.606;7.576;2022-09-25T02:50:26;98364.78;;;16.14;62.01
10587;BME280;5341;47.606;7.576;2022-09-25T02:53:02;98372.88;;;16.14;61.93
10587;BME280;5341;47.606;7.576;2022-09-25T02:55:38;98369.59;;;16.12;61.55
10587;BME280;5341;47.606;7.576;2022-09-25T02:58:10;98369.78;;;16.10;61.71
10587;BME280;5341;47.606;7.576;2022-09-25T03:00:44;98365.44;;;16.09;61.79
10587;BME280;5341;47.606;7.576;2022-09-25T03:03:15;98367.31;;;16.09;61.43
10587;BME280;5341;47.606;7.576;2022-09-25T03:05:46;98370.03;;;16.09;61.66
10587;BME280;5341;47.606;7.576;2022-09-25T03:08:15;98367.56;;;16.07;61.30
10587;BME280;5341;47.606;7.576;2022-09-25T03:11:00;98370.25;;;16.07;61.38
10587;BME280;5341;47.606;7.576;2022-09-25T03:13:30;98371.53;;;16.05;61.49
10587;BME280;5341;47.606;7.576;2022-09-25T03:16:04;98363.91;;;16.02;61.51
10587;BME280;5341;47.606;7.576;2022-09-25T03:18:32;98359.56;;;16.01;61.34
10587;BME280;5341;47.606;7.576;2022-09-25T03:21:00;98364.72;;;16.02;61.53
10587;BME280;5341;47.606;7.576;2022-09-25T03:23:29;98362.63;;;16.04;61.46
10587;BME280;5341;47.606;7.576;2022-09-25T03:25:57;98362.41;;;16.06;61.71
10587;BME280;5341;47.606;7.576;2022-09-25T03:28:25;98361.81;;;16.04;61.34
10587;BME280;5341;47.606;7.576;2022-09-25T03:30:58;98369.66;;;16.05;61.41
10587;BME280;5341;47.606;7.576;2022-09-25T03:33:31;98362.41;;;16.06;61.70
10587;BME280;5341;47.606;7.576;2022-09-25T03:36:04;98355.94;;;16.07;61.57
10587;BME280;5341;47.606;7.576;2022-09-25T03:38:32;98359.47;;;16.07;61.65
10587;BME280;5341;47.606;7.576;2022-09-25T03:41:00;98362.97;;;16.08;61.55
10587;BME280;5341;47.606;7.576;2022-09-25T03:43:27;98355.94;;;16.07;61.36
10587;BME280;5341;47.606;7.576;2022-09-25T03:46:02;98357.81;;;16.06;61.45
10587;BME280;5341;47.606;7.576;2022-09-25T03:48:31;98356.19;;;16.05;61.54
10587;BME280;5341;47.606;7.576;2022-09-25T03:50:59;98357.22;;;16.04;61.53
10587;BME280;5341;47.606;7.576;2022-09-25T03:53:27;98360.75;;;16.05;61.77
10587;BME280;5341;47.606;7.576;2022-09-25T03:55:58;98361.81;;;16.04;61.66
10587;BME280;5341;47.606;7.576;2022-09-25T03:58:26;98364.28;;;16.05;61.70
10587;BME280;5341;47.606;7.576;2022-09-25T04:00:54;98369.44;;;16.07;61.31
10587;BME280;5341;47.606;7.576;2022-09-25T04:03:22;98371.53;;;16.05;61.58
10587;BME280;5341;47.606;7.576;2022-09-25T04:05:55;98369.88;;;16.04;61.33
10587;BME280;5341;47.606;7.576;2022-09-25T04:08:24;98363.69;;;16.03;61.52
10587;BME280;5341;47.606;7.576;2022-09-25T04:10:53;98364.72;;;16.02;61.75
10587;BME280;5341;47.606;7.576;2022-09-25T04:13:21;98360.38;;;16.01;61.68
10587;BME280;5341;47.606;7.576;2022-09-25T04:15:48;98364.97;;;16.01;61.60
10587;BME280;5341;47.606;7.576;2022-09-25T04:18:16;98366.59;;;16.02;61.75
10587;BME280;5341;47.606;7.576;2022-09-25T04:20:43;98367.88;;;15.99;61.57
10587;BME280;5341;47.606;7.576;2022-09-25T04:23:12;98359.78;;;15.99;61.58
10587;BME280;5341;47.606;7.576;2022-09-25T04:25:40;98361.03;;;15.97;61.74
10587;BME280;5341;47.606;7.576;2022-09-25T04:28:07;98363.75;;;15.97;61.82
10587;BME280;5341;47.606;7.576;2022-09-25T04:30:35;98351.91;;;15.98;61.89
10587;BME280;5341;47.606;7.576;2022-09-25T04:33:03;98357.91;;;16.00;61.68
10587;BME280;5341;47.606;7.576;2022-09-25T04:35:48;98370.59;;;15.99;61.92
10587;BME280;5341;47.606;7.576;2022-09-25T04:38:17;98360.81;;;15.98;61.61
10587;BME280;5341;47.606;7.576;2022-09-25T04:40:44;98372.66;;;15.97;61.79
10587;BME280;5341;47.606;7.576;2022-09-25T04:43:12;98375.59;;;15.96;61.95
10587;BME280;5341;47.606;7.576;2022-09-25T04:45:40;98375.34;;;15.97;61.66
10587;BME280;5341;47.606;7.576;2022-09-25T04:48:07;98377.47;;;15.95;61.75
10587;BME280;5341;47.606;7.576;2022-09-25T04:50:35;98389.53;;;15.93;61.64
10587;BME280;5341;47.606;7.576;2022-09-25T04:53:02;98382.03;;;15.95;62.13
10587;BME280;5341;47.606;7.576;2022-09-25T04:55:31;98382.63;;;15.97;61.95
10587;BME280;5341;47.606;7.576;2022-09-25T04:58:00;98397.75;;;15.98;61.84
10587;BME280;5341;47.606;7.576;2022-09-25T05:00:30;98388.59;;;15.99;61.79
10587;BME280;5341;47.606;7.576;2022-09-25T05:02:58;98386.78;;;15.99;61.98
10587;BME280;5341;47.606;7.576;2022-09-25T05:05:25;98387.59;;;16.00;61.80
10587;BME280;5341;47.606;7.576;2022-09-25T05:07:56;98389.47;;;15.99;61.50
10587;BME280;5341;47.606;7.576;2022-09-25T05:10:25;98395.69;;;16.00;61.92
10587;BME280;5341;47.606;7.576;2022-09-25T05:12:56;98387.59;;;16.00;61.65
10587;BME280;5341;47.606;7.576;2022-09-25T05:15:24;98398.38;;;16.00;61.79
10587;BME280;5341;47.606;7.576;2022-09-25T05:17:58;98402.72;;;16.01;61.71
10587;BME280;5341;47.606;7.576;2022-09-25T05:20:26;98395.69;;;16.00;61.99
10587;BME280;5341;47.606;7.576;2022-09-25T05:22:54;98395.69;;;16.00;61.96
10587;BME280;5341;47.606;7.576;2022-09-25T05:25:22;98402.72;;;16.01;61.90
10587;BME280;5341;47.606;7.576;2022-09-25T05:27:50;98396.50;;;16.00;61.65
10587;BME280;5341;47.606;7.576;2022-09-25T05:30:22;98400.03;;;16.01;61.80
10587;BME280;5341;47.606;7.576;2022-09-25T05:32:50;98396.50;;;16.00;61.67
10587;BME280;5341;47.606;7.576;2022-09-25T05:35:18;98392.16;;;15.99;61.46
10587;BME280;5341;47.606;7.576;2022-09-25T05:37:46;98387.78;;;15.98;61.47
10587;BME280;5341;47.606;7.576;2022-09-25T05:40:14;98394.00;;;15.99;61.53
10587;BME280;5341;47.606;7.576;2022-09-25T05:42:42;98395.69;;;16.00;61.55
10587;BME280;5341;47.606;7.576;2022-09-25T05:45:10;98387.59;;;16.00;61.87
10587;BME280;5341;47.606;7.576;2022-09-25T05:47:42;98384.91;;;16.00;61.70
10587;BME280;5341;47.606;7.576;2022-09-25T05:50:11;98388.59;;;15.99;61.84
10587;BME280;5341;47.606;7.576;2022-09-25T05:52:39;98386.78;;;15.99;61.70
10587;BME280;5341;47.606;7.576;2022-09-25T05:55:08;98397.56;;;15.99;61.69
10587;BME280;5341;47.606;7.576;2022-09-25T05:57:36;98402.94;;;15.99;61.57
10587;BME280;5341;47.606;7.576;2022-09-25T06:00:06;98402.94;;;15.99;61.41
10587;BME280;5341;47.606;7.576;2022-09-25T06:02:41;98405.66;;;15.99;61.71
10587;BME280;5341;47.606;7.576;2022-09-25T06:05:09;98400.25;;;15.99;61.67
10587;BME280;5341;47.606;7.576;2022-09-25T06:07:37;98404.59;;;16.00;61.74
10587;BME280;5341;47.606;7.576;2022-09-25T06:10:05;98407.28;;;16.00;61.83
10587;BME280;5341;47.606;7.576;2022-09-25T06:12:35;98408.13;;;16.01;61.49
10587;BME280;5341;47.606;7.576;2022-09-25T06:15:03;98413.50;;;16.01;61.67
10587;BME280;5341;47.606;7.576;2022-09-25T06:17:31;98406.47;;;16.00;61.46
10587;BME280;5341;47.606;7.576;2022-09-25T06:20:00;98413.75;;;15.99;61.71
10587;BME280;5341;47.606;7.576;2022-09-25T06:22:28;98415.59;;;15.99;61.91
10587;BME280;5341;47.606;7.576;2022-09-25T06:24:57;98421.81;;;15.99;61.82
10587;BME280;5341;47.606;7.576;2022-09-25T06:27:24;98425.13;;;16.01;62.02
10587;BME280;5341;47.606;7.576;2022-09-25T06:29:52;98425.34;;;16.00;61.99
10587;BME280;5341;47.606;7.576;2022-09-25T06:32:20;98421.59;;;16.01;61.78
10587;BME280;5341;47.606;7.576;2022-09-25T06:34:48;98421.59;;;16.01;61.41
10587;BME280;5341;47.606;7.576;2022-09-25T06:37:17;98419.72;;;16.01;61.50
10587;BME280;5341;47.606;7.576;2022-09-25T06:39:45;98412.47;;;16.02;61.45
10587;BME280;5341;47.606;7.576;2022-09-25T06:42:12;98416.78;;;16.03;61.76
10587;BME280;5341;47.606;7.576;2022-09-25T06:44:40;98420.31;;;16.03;61.62
10587;BME280;5341;47.606;7.576;2022-09-25T06:47:09;98416.78;;;16.03;61.88
10587;BME280;5341;47.606;7.576;2022-09-25T06:49:37;98416.56;;;16.04;61.78
10587;BME280;5341;47.606;7.576;2022-09-25T06:52:05;98423.84;;;16.04;61.56
10587;BME280;5341;47.606;7.576;2022-09-25T06:54:35;98410.94;;;16.06;61.69
10587;BME280;5341;47.606;7.576;2022-09-25T06:57:02;98414.69;;;16.05;61.68
10587;BME280;5341;47.606;7.576;2022-09-25T06:59:30;98419.03;;;16.06;61.41
10587;BME280;5341;47.606;7.576;2022-09-25T07:01:58;98413.88;;;16.04;61.69
10587;BME280;5341;47.606;7.576;2022-09-25T07:04:46;98411.19;;;16.04;61.76
10587;BME280;5341;47.606;7.576;2022-09-25T07:07:16;98413.63;;;16.06;61.72
10587;BME280;5341;47.606;7.576;2022-09-25T07:09:47;98417.16;;;16.06;61.52
10587;BME280;5341;47.606;7.576;2022-09-25T07:12:15;98410.72;;;16.07;61.88
10587;BME280;5341;47.606;7.576;2022-09-25T07:14:43;98414.22;;;16.08;61.54
10587;BME280;5341;47.606;7.576;2022-09-25T07:17:12;98421.28;;;16.09;61.82
10587;BME280;5341;47.606;7.576;2022-09-25T07:19:40;98416.69;;;16.09;61.59
10587;BME280;5341;47.606;7.576;2022-09-25T07:22:07;98414.22;;;16.08;61.33
10587;BME280;5341;47.606;7.576;2022-09-25T07:24:37;98421.50;;;16.07;61.74
10587;BME280;5341;47.606;7.576;2022-09-25T07:27:07;98424.19;;;16.07;61.53
10587;BME280;5341;47.606;7.576;2022-09-25T07:29:34;98427.72;;;16.08;61.69
10587;BME280;5341;47.606;7.576;2022-09-25T07:32:03;98423.16;;;16.08;61.66
10587;BME280;5341;47.606;7.576;2022-09-25T07:34:34;98423.97;;;16.09;61.67
10587;BME280;5341;47.606;7.576;2022-09-25T07:37:05;98428.31;;;16.10;62.04
10587;BME280;5341;47.606;7.576;2022-09-25T07:39:43;98429.13;;;16.10;62.09
10587;BME280;5341;47.606;7.576;2022-09-25T07:42:13;98438.91;;;16.11;61.64
10587;BME280;5341;47.606;7.576;2022-09-25T07:44:44;98439.72;;;16.12;61.72
10587;BME280;5341;47.606;7.576;2022-09-25T07:47:13;98437.03;;;16.12;61.88
10587;BME280;5341;47.606;7.576;2022-09-25T07:49:42;98437.84;;;16.13;62.18
10587;BME280;5341;47.606;7.576;2022-09-25T07:52:15;98443.25;;;16.13;61.64
10587;BME280;5341;47.606;7.576;2022-09-25T07:54:45;98441.38;;;16.13;61.89
10587;BME280;5341;47.606;7.576;2022-09-25T07:57:17;98441.16;;;16.15;61.98
10587;BME280;5341;47.606;7.576;2022-09-25T07:59:46;98437.41;;;16.16;61.95
10587;BME280;5341;47.606;7.576;2022-09-25T08:02:13;98432.59;;;16.18;62.23
10587;BME280;5341;47.606;7.576;2022-09-25T08:04:41;98431.53;;;16.19;61.96
10587;BME280;5341;47.606;7.576;2022-09-25T08:07:08;98435.88;;;16.20;61.85
10587;BME280;5341;47.606;7.576;2022-09-25T08:09:36;98436.47;;;16.22;62.31
10587;BME280;5341;47.606;7.576;2022-09-25T08:12:05;98437.28;;;16.22;62.19
10587;BME280;5341;47.606;7.576;2022-09-25T08:14:36;98424.63;;;16.23;62.02
10587;BME280;5341;47.606;7.576;2022-09-25T08:17:04;98427.13;;;16.24;62.55
10587;BME280;5341;47.606;7.576;2022-09-25T08:19:31;98427.72;;;16.26;62.27
10587;BME280;5341;47.606;7.576;2022-09-25T08:21:59;98428.53;;;16.27;62.18
10587;BME280;5341;47.606;7.576;2022-09-25T08:24:27;98433.72;;;16.28;62.25
10587;BME280;5341;47.606;7.576;2022-09-25T08:26:54;98437.00;;;16.30;62.51
10587;BME280;5341;47.606;7.576;2022-09-25T08:29:21;98439.25;;;16.33;62.90
10587;BME280;5341;47.606;7.576;2022-09-25T08:31:51;98441.72;;;16.35;62.31
10587;BME280;5341;47.606;7.576;2022-09-25T08:34:19;98440.69;;;16.36;62.50
10587;BME280;5341;47.606;7.576;2022-09-25T08:36:48;98437.75;;;16.37;62.51
10587;BME280;5341;47.606;7.576;2022-09-25T08:39:16;98449.13;;;16.39;62.56
10587;BME280;5341;47.606;7.576;2022-09-25T08:41:49;98443.75;;;16.39;62.31
10587;BME280;5341;47.606;7.576;2022-09-25T08:44:24;98438.94;;;16.41;62.44
10587;BME280;5341;47.606;7.576;2022-09-25T08:46:57;98447.84;;;16.42;62.58
10587;BME280;5341;47.606;7.576;2022-09-25T08:49:50;98445.16;;;16.42;62.59
10587;BME280;5341;47.606;7.576;2022-09-25T08:52:20;98444.91;;;16.44;62.29
10587;BME280;5341;47.606;7.576;2022-09-25T08:54:49;98441.16;;;16.45;62.06
10587;BME280;5341;47.606;7.576;2022-09-25T08:57:26;98434.72;;;16.46;61.88
10587;BME280;5341;47.606;7.576;2022-09-25T08:59:58;98428.25;;;16.47;62.10
10587;BME280;5341;47.606;7.576;2022-09-25T09:02:37;98436.16;;;16.48;61.86
10587;BME280;5341;47.606;7.576;2022-09-25T09:05:15;98435.94;;;16.50;61.93
10587;BME280;5341;47.606;7.576;2022-09-25T09:07:45;98433.00;;;16.51;62.47
10587;BME280;5341;47.606;7.576;2022-09-25T09:10:27;98439.81;;;16.54;62.62
10587;BME280;5341;47.606;7.576;2022-09-25T09:13:02;98427.72;;;16.56;63.10
10587;BME280;5341;47.606;7.576;2022-09-25T09:15:34;98438.91;;;16.60;63.55
10587;BME280;5341;47.606;7.576;2022-09-25T09:18:16;98440.31;;;16.62;63.84
10587;BME280;5341;47.606;7.576;2022-09-25T09:20:50;98444.44;;;16.65;63.77
10587;BME280;5341;47.606;7.576;2022-09-25T09:23:28;98439.03;;;16.65;63.27
10587;BME280;5341;47.606;7.576;2022-09-25T09:26:01;98440.69;;;16.66;63.35
10587;BME280;5341;47.606;7.576;2022-09-25T09:28:56;98452.09;;;16.68;63.27
10587;BME280;5341;47.606;7.576;2022-09-25T09:31:33;98445.88;;;16.67;62.97
10587;BME280;5341;47.606;7.576;2022-09-25T09:34:27;98436.94;;;16.67;62.88
10587;BME280;5341;47.606;7.576;2022-09-25T09:37:01;98429.06;;;16.65;62.63
10587;BME280;5341;47.606;7.576;2022-09-25T09:39:37;98437.78;;;16.67;62.36
10587;BME280;5341;47.606;7.576;2022-09-25T09:42:15;98438.59;;;16.68;62.37
10587;BME280;5341;47.606;7.576;2022-09-25T09:44:53;98435.09;;;16.67;62.43
10587;BME280;5341;47.606;7.576;2022-09-25T09:47:34;98434.03;;;16.68;62.16
10587;BME280;5341;47.606;7.576;2022-09-25T09:50:24;98432.97;;;16.69;62.54
10587;BME280;5341;47.606;7.576;2022-09-25T09:52:58;98441.31;;;16.68;62.20
10587;BME280;5341;47.606;7.576;2022-09-25T09:55:35;98439.19;;;16.70;62.52
10587;BME280;5341;47.606;7.576;2022-09-25T09:58:10;98444.34;;;16.72;62.04
10587;BME280;5341;47.606;7.576;2022-09-25T10:00:40;98444.16;;;16.73;62.21
10587;BME280;5341;47.606;7.576;2022-09-25T10:03:12;98433.13;;;16.75;62.34
10587;BME280;5341;47.606;7.576;2022-09-25T10:05:46;98442.88;;;16.76;62.53
10587;BME280;5341;47.606;7.576;2022-09-25T10:08:14;98437.00;;;16.79;62.55
10587;BME280;5341;47.606;7.576;2022-09-25T10:10:43;98433.25;;;16.80;62.36
10587;BME280;5341;47.606;7.576;2022-09-25T10:13:16;98442.75;;;16.82;62.76
10587;BME280;5341;47.606;7.576;2022-09-25T10:15:47;98435.47;;;16.83;62.10
10587;BME280;5341;47.606;7.576;2022-09-25T10:18:17;98432.78;;;16.83;61.92
10587;BME280;5341;47.606;7.576;2022-09-25T10:20:51;98427.38;;;16.83;61.88
10587;BME280;5341;47.606;7.576;2022-09-25T10:23:32;98415.31;;;16.85;62.32
10587;BME280;5341;47.606;7.576;2022-09-25T10:26:02;98418.84;;;16.86;62.32
10587;BME280;5341;47.606;7.576;2022-09-25T10:28:33;98416.72;;;16.88;61.95
10587;BME280;5341;47.606;7.576;2022-09-25T10:31:02;98405.69;;;16.89;62.55
10587;BME280;5341;47.606;7.576;2022-09-25T10:33:33;98405.44;;;16.91;62.73
10587;BME280;5341;47.606;7.576;2022-09-25T10:36:03;98403.31;;;16.93;62.84
10587;BME280;5341;47.606;7.576;2022-09-25T10:38:36;98404.72;;;16.95;62.88
10587;BME280;5341;47.606;7.576;2022-09-25T10:41:08;98413.00;;;17.01;63.52
10587;BME280;5341;47.606;7.576;2022-09-25T10:43:50;98407.69;;;17.06;63.39
10587;BME280;5341;47.606;7.576;2022-09-25T10:46:26;98413.25;;;17.11;63.78
10587;BME280;5341;47.606;7.576;2022-09-25T10:49:13;98415.25;;;17.15;63.84
10587;BME280;5341;47.606;7.576;2022-09-25T10:52:05;98413.50;;;17.21;63.91
10587;BME280;5341;47.606;7.576;2022-09-25T10:54:34;98409.50;;;17.23;64.04
10587;BME280;5341;47.606;7.576;2022-09-25T10:57:14;98405.03;;;17.29;65.99
10587;BME280;5341;47.606;7.576;2022-09-25T10:59:46;98411.16;;;17.36;65.61
10587;BME280;5341;47.606;7.576;2022-09-25T11:02:24;98415.59;;;17.42;64.57
10587;BME280;5341;47.606;7.576;2022-09-25T11:04:56;98423.84;;;17.47;64.17
10587;BME280;5341;47.606;7.576;2022-09-25T11:07:26;98418.53;;;17.52;63.50
10587;BME280;5341;47.606;7.576;2022-09-25T11:09:54;98414.31;;;17.56;63.50
10587;BME280;5341;47.606;7.576;2022-09-25T11:12:22;98420.09;;;17.60;63.18
10587;BME280;5341;47.606;7.576;2022-09-25T11:14:55;98420.19;;;17.65;63.34
10587;BME280;5341;47.606;7.576;2022-09-25T11:17:31;98413.63;;;17.73;64.30
10587;BME280;5341;47.606;7.576;2022-09-25T11:20:18;98414.22;;;17.86;65.21
10587;BME280;5341;47.606;7.576;2022-09-25T11:22:51;98414.19;;;17.98;64.78
10587;BME280;5341;47.606;7.576;2022-09-25T11:25:23;98413.84;;;18.06;64.42
10587;BME280;5341;47.606;7.576;2022-09-25T11:27:56;98405.81;;;18.11;64.33
10587;BME280;5341;47.606;7.576;2022-09-25T11:30:32;98407.19;;;18.14;63.82
10587;BME280;5341;47.606;7.576;2022-09-25T11:33:12;98405.06;;;18.16;63.68
10587;BME280;5341;47.606;7.576;2022-09-25T11:35:51;98410.28;;;18.18;63.61
10587;BME280;5341;47.606;7.576;2022-09-25T11:38:29;98415.19;;;18.21;63.45
10587;BME280;5341;47.606;7.576;2022-09-25T11:41:20;98405.78;;;18.23;63.83
10587;BME280;5341;47.606;7.576;2022-09-25T11:44:00;98409.38;;;18.29;64.41
10587;BME280;5341;47.606;7.576;2022-09-25T11:46:40;98406.88;;;18.39;64.33
10587;BME280;5341;47.606;7.576;2022-09-25T11:49:19;98408.03;;;18.55;64.40
10587;BME280;5341;47.606;7.576;2022-09-25T11:54:57;98399.94;;;18.71;63.56
10587;BME280;5341;47.606;7.576;2022-09-25T11:57:34;98406.06;;;18.79;63.54
10587;BME280;5341;47.606;7.576;2022-09-25T12:00:08;98397.25;;;18.88;64.00
10587;BME280;5341;47.606;7.576;2022-09-25T12:02:49;98405.66;;;19.03;64.78
10587;BME280;5341;47.606;7.576;2022-09-25T12:08:38;98394.81;;;19.20;64.23
10587;BME280;5341;47.606;7.576;2022-09-25T12:11:18;98395.50;;;19.27;64.08
10587;BME280;5341;47.606;7.576;2022-09-25T12:13:52;98398.25;;;19.32;63.84
10587;BME280;5341;47.606;7.576;2022-09-25T12:16:25;98387.16;;;19.34;63.58
10587;BME280;5341;47.606;7.576;2022-09-25T12:19:04;98395.16;;;19.41;63.12
10587;BME280;5341;47.606;7.576;2022-09-25T12:21:40;98393.00;;;19.43;63.43
10587;BME280;5341;47.606;7.576;2022-09-25T12:24:21;98389.53;;;19.47;63.80
10587;BME280;5341;47.606;7.576;2022-09-25T12:26:59;98390.69;;;19.51;63.43
10587;BME280;5341;47.606;7.576;2022-09-25T12:29:45;98382.91;;;19.55;63.25
10587;BME280;5341;47.606;7.576;2022-09-25T12:32:26;98370.72;;;19.57;63.15
10587;BME280;5341;47.606;7.576;2022-09-25T12:35:08;98377.28;;;19.61;63.17
10587;BME280;5341;47.606;7.576;2022-09-25T12:37:42;98380.34;;;19.65;63.38
10587;BME280;5341;47.606;7.576;2022-09-25T12:40:19;98376.06;;;19.69;63.23
10587;BME280;5341;47.606;7.576;2022-09-25T12:42:55;98374.25;;;19.75;62.03
10587;BME280;5341;47.606;7.576;2022-09-25T12:45:29;98378.66;;;19.81;61.59
10587;BME280;5341;47.606;7.576;2022-09-25T12:48:09;98380.13;;;19.88;62.57
10587;BME280;5341;47.606;7.576;2022-09-25T12:50:44;98380.56;;;20.02;61.19
10587;BME280;5341;47.606;7.576;2022-09-25T12:53:24;98377.50;;;20.20;61.54
10587;BME280;5341;47.606;7.576;2022-09-25T12:55:59;98374.91;;;20.31;60.55
10587;BME280;5341;47.606;7.576;2022-09-25T12:58:41;98372.56;;;20.39;59.67
10587;BME280;5341;47.606;7.576;2022-09-25T13:01:18;98373.03;;;20.53;59.97
10587;BME280;5341;47.606;7.576;2022-09-25T13:03:56;98373.78;;;20.75;59.80
10587;BME280;5341;47.606;7.576;2022-09-25T13:06:33;98367.03;;;20.83;60.11
10587;BME280;5341;47.606;7.576;2022-09-25T13:09:11;98369.81;;;20.88;59.15
10587;BME280;5341;47.606;7.576;2022-09-25T13:11:42;98365.75;;;20.91;58.17
10587;BME280;5341;47.606;7.576;2022-09-25T13:14:25;98360.84;;;20.88;58.27
10587;BME280;5341;47.606;7.576;2022-09-25T13:16:53;98365.41;;;20.82;58.93
10587;BME280;5341;47.606;7.576;2022-09-25T13:19:25;98361.03;;;20.76;59.04
10587;BME280;5341;47.606;7.576;2022-09-25T13:22:02;98363.94;;;20.69;58.64
10587;BME280;5341;47.606;7.576;2022-09-25T13:24:37;98355.75;;;20.64;58.21
10587;BME280;5341;47.606;7.576;2022-09-25T13:27:13;98363.81;;;20.59;58.84
10587;BME280;5341;47.606;7.576;2022-09-25T13:29:51;98358.34;;;20.54;59.23
10587;BME280;5341;47.606;7.576;2022-09-25T13:32:21;98353.72;;;20.50;58.80
10587;BME280;5341;47.606;7.576;2022-09-25T13:34:53;98348.53;;;20.48;58.89
10587;BME280;5341;47.606;7.576;2022-09-25T13:37:25;98355.28;;;20.45;58.11
10587;BME280;5341;47.606;7.576;2022-09-25T13:39:54;98346.81;;;20.42;58.11
10587;BME280;5341;47.606;7.576;2022-09-25T13:42:40;98348.13;;;20.39;59.02
10587;BME280;5341;47.606;7.576;2022-09-25T13:45:32;98347.88;;;20.41;58.03